Time;durP1;ratioP1;P1;durP2;ratioP2;P2;SDS_P1;SDS_P2;PMS_P1;PMS_P2;Temp;Humidity;BMP_temperature;BMP_pressure;BME280_temperature;BME280_humidity;BME280_pressure;Samples;Min_cycle;Max_cycle;Signal;HPM_P1;HPM_P2
2022/03/07 00:01:33;;;;;;;7.50;3.97;;;;;;;-3.10;100.00;97258.78;4945316;28;20048;-75
2022/03/07 00:03:58;;;;;;;6.85;3.63;;;;;;;-3.09;100.00;97270.91;4944376;28;20037;-75
2022/03/07 00:06:24;;;;;;;6.25;3.58;;;;;;;-3.25;100.00;97265.44;4959014;28;20070;-75
2022/03/07 00:08:49;;;;;;;6.90;4.28;;;;;;;-3.21;100.00;97274.66;4951923;28;20082;-76
2022/03/07 00:11:17;;;;;;;8.90;4.07;;;;;;;-3.13;100.00;97274.75;4973099;28;20126;-75
2022/03/07 00:13:43;;;;;;;8.45;4.00;;;;;;;-3.16;100.00;97264.59;4958225;28;20028;-75
2022/03/07 00:16:09;;;;;;;5.88;2.75;;;;;;;-3.18;100.00;97261.28;4945336;28;20023;-75
2022/03/07 00:18:35;;;;;;;7.30;3.78;;;;;;;-3.18;100.00;97258.69;4958380;28;20047;-75
2022/03/07 00:21:02;;;;;;;7.60;4.00;;;;;;;-3.14;100.00;97262.63;4943368;28;20062;-75
2022/03/07 00:23:27;;;;;;;7.20;4.00;;;;;;;-3.03;100.00;97266.91;4945029;28;20521;-75
2022/03/07 00:25:53;;;;;;;8.15;3.55;;;;;;;-3.10;100.00;97271.88;4937450;28;20039;-75
2022/03/07 00:28:19;;;;;;;6.60;3.75;;;;;;;-3.02;100.00;97268.53;4942945;28;20538;-75
2022/03/07 00:30:44;;;;;;;6.50;3.45;;;;;;;-2.95;100.00;97274.03;4971584;28;20035;-75
2022/03/07 00:33:10;;;;;;;5.82;3.70;;;;;;;-2.97;100.00;97278.56;4888297;28;20055;-75
2022/03/07 00:35:35;;;;;;;6.07;3.03;;;;;;;-2.98;100.00;97275.13;300104;28;10022765;-76
2022/03/07 00:38:01;;;;;;;5.22;3.25;;;;;;;-2.98;100.00;97277.75;4972478;28;20035;-75
2022/03/07 00:40:27;;;;;;;7.13;3.42;;;;;;;-2.88;100.00;97273.31;4942096;28;20039;-75
2022/03/07 00:42:52;;;;;;;4.95;2.90;;;;;;;-2.79;100.00;97276.03;4959535;28;20031;-76
2022/03/07 00:45:18;;;;;;;7.82;2.70;;;;;;;-2.81;100.00;97276.16;4992508;28;20613;-76
2022/03/07 00:47:43;;;;;;;6.25;3.22;;;;;;;-2.73;100.00;97280.66;4972373;28;20171;-76
2022/03/07 00:50:09;;;;;;;5.07;3.28;;;;;;;-2.61;100.00;97280.34;4975123;28;21580;-75
2022/03/07 00:52:35;;;;;;;6.68;3.03;;;;;;;-2.45;100.00;97271.00;4977242;28;20062;-75
2022/03/07 00:55:00;;;;;;;5.35;3.22;;;;;;;-2.28;100.00;97289.38;4974890;28;20035;-75
2022/03/07 00:57:26;;;;;;;6.95;2.60;;;;;;;-2.32;100.00;97279.34;4953488;28;20034;-75
2022/03/07 00:59:51;;;;;;;6.57;3.67;;;;;;;-2.28;100.00;97286.75;4959391;28;20122;-76
2022/03/07 01:02:17;;;;;;;5.10;3.10;;;;;;;-2.39;100.00;97276.50;4956668;28;20039;-76
2022/03/07 01:04:43;;;;;;;7.10;3.75;;;;;;;-2.18;100.00;97288.47;4976337;28;20482;-75
2022/03/07 01:07:09;;;;;;;3.90;2.35;;;;;;;-2.20;100.00;97286.00;4942296;28;20039;-76
2022/03/07 01:09:35;;;;;;;5.43;2.80;;;;;;;-2.30;100.00;97285.25;4943339;28;20041;-76
2022/03/07 01:12:00;;;;;;;7.03;2.67;;;;;;;-2.49;99.64;97282.75;4944629;28;20035;-76
2022/03/07 01:14:26;;;;;;;4.55;2.47;;;;;;;-2.68;99.68;97279.28;4944818;28;20031;-76
2022/03/07 01:16:51;;;;;;;5.90;2.85;;;;;;;-2.73;99.78;97283.28;4944552;28;20078;-75
2022/03/07 01:19:17;;;;;;;5.45;2.55;;;;;;;-2.76;100.00;97283.59;4975273;28;20058;-76
2022/03/07 01:21:43;;;;;;;2.85;1.60;;;;;;;-2.94;100.00;97284.34;4977825;28;20212;-75
2022/03/07 01:24:09;;;;;;;9.95;3.28;;;;;;;-2.81;99.88;97282.22;4978994;28;20125;-76
2022/03/07 01:26:36;;;;;;;5.07;2.10;;;;;;;-2.96;100.00;97282.84;4941610;28;20122;-75
2022/03/07 01:29:01;;;;;;;3.85;2.33;;;;;;;-3.08;100.00;97266.50;4973155;28;20043;-76
2022/03/07 01:31:27;;;;;;;7.25;2.70;;;;;;;-3.01;100.00;97264.13;4974808;28;20042;-76
2022/03/07 01:33:53;;;;;;;4.22;2.38;;;;;;;-3.08;100.00;97269.09;4976287;28;20157;-76
2022/03/07 01:36:19;;;;;;;5.18;2.80;;;;;;;-2.97;100.00;97266.28;4936825;28;20038;-76
2022/03/07 01:38:44;;;;;;;6.47;3.03;;;;;;;-2.93;100.00;97266.84;4989583;28;20030;-75
2022/03/07 01:41:10;;;;;;;4.72;2.50;;;;;;;-3.15;100.00;97266.22;4972652;28;20090;-76
2022/03/07 01:43:35;;;;;;;6.47;1.60;;;;;;;-3.12;100.00;97255.47;4974000;28;20035;-75
2022/03/07 01:46:01;;;;;;;3.65;2.20;;;;;;;-3.30;100.00;97254.56;4974187;28;20027;-75
2022/03/07 01:48:26;;;;;;;4.95;2.65;;;;;;;-3.40;100.00;97262.47;4944220;28;20063;-75
2022/03/07 01:50:52;;;;;;;5.07;2.67;;;;;;;-3.44;100.00;97255.03;4976177;28;20110;-75
2022/03/07 01:53:21;;;;;;;6.00;1.77;;;;;;;-3.53;100.00;97246.22;4978257;28;20031;-75
2022/03/07 01:55:50;;;;;;;4.90;2.25;;;;;;;-3.56;100.00;97245.69;4976338;28;20035;-75
2022/03/07 01:58:15;;;;;;;5.32;2.60;;;;;;;-3.60;100.00;97239.91;4945553;28;20043;-75
2022/03/07 02:00:41;;;;;;;5.60;2.80;;;;;;;-3.53;100.00;97242.78;4977290;28;20589;-75
2022/03/07 02:03:06;;;;;;;6.45;2.80;;;;;;;-3.61;100.00;97238.25;4958330;28;20355;-76
2022/03/07 02:05:45;;;;;;;2.92;1.77;;;;;;;-3.72;100.00;97252.34;4954699;28;20031;-76
2022/03/07 02:08:16;;;;;;;6.10;2.92;;;;;;;-3.66;100.00;97250.94;4955560;28;20047;-76
2022/03/07 02:10:49;;;;;;;5.18;2.58;;;;;;;-3.60;100.00;97257.41;4972798;28;20043;-76
2022/03/07 02:13:17;;;;;;;10.98;3.28;;;;;;;-3.73;100.00;97250.69;4956873;28;20077;-76
2022/03/07 02:15:57;;;;;;;5.00;2.80;;;;;;;-3.63;100.00;97249.84;4972697;28;20109;-76
2022/03/07 02:18:29;;;;;;;4.53;2.17;;;;;;;-3.63;100.00;97247.22;4922989;28;20082;-76
2022/03/07 02:21:10;;;;;;;5.32;2.90;;;;;;;-3.76;100.00;97255.34;4970589;28;20035;-76
2022/03/07 02:23:43;;;;;;;4.72;2.33;;;;;;;-3.76;100.00;97250.94;4971229;28;20035;-76
2022/03/07 02:26:17;;;;;;;6.07;3.05;;;;;;;-3.62;100.00;97247.06;4968955;28;20035;-76
2022/03/07 02:28:46;;;;;;;6.40;3.05;;;;;;;-3.69;100.00;97257.28;4956052;28;20038;-76
2022/03/07 02:31:18;;;;;;;6.63;2.95;;;;;;;-3.59;100.00;97257.25;4951093;28;20102;-76
2022/03/07 02:33:45;;;;;;;5.20;2.85;;;;;;;-3.52;100.00;97257.53;4970560;28;20059;-76
2022/03/07 02:36:11;;;;;;;5.70;2.70;;;;;;;-3.49;100.00;97249.41;4952961;28;20027;-76
2022/03/07 02:38:36;;;;;;;6.95;2.70;;;;;;;-3.39;100.00;97239.72;4941661;28;20117;-76
2022/03/07 02:41:02;;;;;;;8.85;3.03;;;;;;;-3.32;100.00;97242.59;4932212;28;20082;-76
2022/03/07 02:43:28;;;;;;;5.13;2.28;;;;;;;-3.38;100.00;97244.00;4939300;28;20114;-76
2022/03/07 02:45:57;;;;;;;9.13;3.15;;;;;;;-3.35;100.00;97246.31;4968412;28;20031;-73
2022/03/07 02:48:23;;;;;;;4.93;2.30;;;;;;;-3.37;100.00;97237.78;4967355;28;20039;-73
2022/03/07 02:50:48;;;;;;;3.25;2.08;;;;;;;-3.32;100.00;97242.59;4954330;28;20223;-73
2022/03/07 02:53:14;;;;;;;4.78;2.75;;;;;;;-3.21;100.00;97245.03;4969334;28;20036;-73
2022/03/07 02:55:40;;;;;;;4.15;2.30;;;;;;;-3.26;100.00;97239.41;4970886;28;20959;-73
2022/03/07 02:58:05;;;;;;;4.32;2.30;;;;;;;-3.25;100.00;97247.13;4952619;28;20027;-73
2022/03/07 03:00:32;;;;;;;4.78;2.60;;;;;;;-3.21;100.00;97251.09;4940311;28;20050;-73
2022/03/07 03:02:57;;;;;;;4.95;2.65;;;;;;;-3.34;100.00;97245.38;4956096;28;20031;-73
2022/03/07 03:05:23;;;;;;;6.28;2.85;;;;;;;-3.35;100.00;97243.69;4942133;28;20497;-73
2022/03/07 03:07:51;;;;;;;4.72;2.60;;;;;;;-3.48;100.00;97245.81;4939559;28;20130;-73
2022/03/07 03:10:18;;;;;;;11.77;2.45;;;;;;;-3.52;100.00;97247.06;4941986;28;20476;-73
2022/03/07 03:12:44;;;;;;;5.40;2.17;;;;;;;-3.54;100.00;97244.59;4975517;28;20070;-73
2022/03/07 03:15:10;;;;;;;3.13;1.90;;;;;;;-3.54;100.00;97244.59;4972820;28;20121;-72
2022/03/07 03:17:40;;;;;;;5.22;2.22;;;;;;;-3.47;100.00;97244.84;4939673;28;20047;-73
2022/03/07 03:20:08;;;;;;;4.00;2.15;;;;;;;-3.43;100.00;97236.56;4941472;28;20069;-73
2022/03/07 03:22:34;;;;;;;2.95;1.30;;;;;;;-3.48;100.00;97244.03;4943051;28;20109;-73
2022/03/07 03:24:59;;;;;;;5.22;2.40;;;;;;;-3.39;100.00;97255.44;4940514;28;20070;-73
2022/03/07 03:27:25;;;;;;;4.63;2.30;;;;;;;-3.32;100.00;97246.03;4941371;28;20054;-73
2022/03/07 03:29:50;;;;;;;5.53;2.40;;;;;;;-3.34;100.00;97248.00;4972653;28;20051;-73
2022/03/07 03:32:16;;;;;;;5.35;2.40;;;;;;;-3.35;100.00;97241.06;4941028;28;20043;-73
2022/03/07 03:34:42;;;;;;;2.90;1.27;;;;;;;-3.37;100.00;97240.41;4941683;28;20586;-72
2022/03/07 03:37:07;;;;;;;5.47;2.45;;;;;;;-3.36;100.00;97245.47;4942010;28;20038;-73
2022/03/07 03:39:33;;;;;;;3.50;2.00;;;;;;;-3.39;100.00;97252.81;4941251;28;20035;-73
2022/03/07 03:41:59;;;;;;;6.97;2.38;;;;;;;-3.47;100.00;97256.13;4972853;28;20914;-73
2022/03/07 03:44:25;;;;;;;6.50;3.30;;;;;;;-3.34;100.00;97253.22;4941805;28;20027;-73
2022/03/07 03:46:50;;;;;;;9.13;3.03;;;;;;;-3.28;100.00;97247.38;4940481;28;20043;-73
2022/03/07 03:49:16;;;;;;;5.57;2.80;;;;;;;-3.14;100.00;97241.69;4943116;28;20054;-73
2022/03/07 03:51:42;;;;;;;5.18;2.53;;;;;;;-3.18;100.00;97240.34;4942415;28;20035;-73
2022/03/07 03:54:07;;;;;;;8.07;2.90;;;;;;;-3.22;100.00;97238.16;4940023;28;20782;-73
2022/03/07 03:56:33;;;;;;;7.25;2.70;;;;;;;-3.20;100.00;97236.19;4940619;28;20979;-73
2022/03/07 03:58:58;;;;;;;6.25;2.45;;;;;;;-3.24;100.00;97240.91;4953983;28;20058;-73
2022/03/07 04:01:24;;;;;;;4.28;2.25;;;;;;;-3.29;100.00;97237.88;4956254;28;20043;-72
2022/03/07 04:03:49;;;;;;;5.18;2.53;;;;;;;-3.48;100.00;97244.03;4954165;28;20038;-73
2022/03/07 04:06:14;;;;;;;6.80;2.92;;;;;;;-3.63;100.00;97234.16;4939768;28;20043;-73
2022/03/07 04:08:43;;;;;;;6.15;2.78;;;;;;;-3.72;100.00;97244.50;4941242;28;20297;-72
2022/03/07 04:11:12;;;;;;;5.05;2.97;;;;;;;-3.82;100.00;97241.03;4970801;28;20040;-73
2022/03/07 04:13:37;;;;;;;8.93;2.58;;;;;;;-3.79;100.00;97239.97;4944393;28;20043;-73
2022/03/07 04:16:03;;;;;;;4.97;2.28;;;;;;;-3.80;100.00;97241.75;4941452;28;20035;-72
2022/03/07 04:18:29;;;;;;;4.53;2.58;;;;;;;-3.84;100.00;97250.00;4939481;28;20019;-73
2022/03/07 04:20:54;;;;;;;5.82;3.00;;;;;;;-3.80;100.00;97244.38;4940907;28;20110;-72
2022/03/07 04:23:21;;;;;;;5.95;3.03;;;;;;;-3.63;100.00;97249.84;4942294;28;20039;-73
2022/03/07 04:25:49;;;;;;;6.15;2.80;;;;;;;-3.62;100.00;97254.09;4939557;28;20130;-73
2022/03/07 04:28:15;;;;;;;11.25;3.35;;;;;;;-3.58;100.00;97251.06;4970494;28;20058;-73
2022/03/07 04:30:42;;;;;;;6.07;3.17;;;;;;;-3.52;100.00;97257.53;4955037;28;20043;-72
2022/03/07 04:33:08;;;;;;;7.30;3.15;;;;;;;-3.45;100.00;97254.19;4940538;28;20027;-73
2022/03/07 04:35:35;;;;;;;8.15;2.72;;;;;;;-3.54;100.00;97255.03;4939895;28;20094;-72
2022/03/07 04:38:01;;;;;;;5.70;3.10;;;;;;;-3.51;100.00;97261.78;4954020;28;20035;-72
2022/03/07 04:40:27;;;;;;;5.70;2.70;;;;;;;-3.40;100.00;97266.88;4939278;28;20411;-73
2022/03/07 04:42:52;;;;;;;5.68;3.00;;;;;;;-3.46;100.00;97263.00;4972423;28;20134;-72
2022/03/07 04:45:18;;;;;;;6.35;3.03;;;;;;;-3.42;100.00;97269.63;4940839;28;20050;-72
2022/03/07 04:47:44;;;;;;;6.88;3.20;;;;;;;-3.40;100.00;97266.88;4970798;28;20116;-72
2022/03/07 04:50:12;;;;;;;7.95;3.20;;;;;;;-3.34;100.00;97273.34;4940408;28;20857;-72
2022/03/07 04:52:38;;;;;;;4.18;2.60;;;;;;;-3.34;100.00;97279.41;4941571;28;20047;-72
2022/03/07 04:55:04;;;;;;;6.72;3.08;;;;;;;-3.21;100.00;97279.88;4938664;28;20440;-72
2022/03/07 04:57:30;;;;;;;4.75;2.80;;;;;;;-3.14;100.00;97274.91;4970805;28;20495;-72
2022/03/07 04:59:56;;;;;;;6.55;3.40;;;;;;;-3.05;100.00;97279.28;4937996;28;20038;-72
2022/03/07 05:02:21;;;;;;;4.50;2.88;;;;;;;-2.96;100.00;97274.97;4955385;28;20101;-72
2022/03/07 05:04:46;;;;;;;3.95;2.22;;;;;;;-2.97;100.00;97283.81;4940681;28;20070;-72
2022/03/07 05:07:12;;;;;;;15.32;4.93;;;;;;;-2.99;100.00;97280.50;4939290;28;20086;-73
2022/03/07 05:09:37;;;;;;;4.90;2.80;;;;;;;-3.06;100.00;97279.44;4939193;28;20142;-73
2022/03/07 05:12:03;;;;;;;6.15;3.70;;;;;;;-3.05;100.00;97284.53;4939495;28;20035;-73
2022/03/07 05:14:29;;;;;;;7.97;3.25;;;;;;;-2.94;100.00;97279.13;4970581;28;20031;-73
2022/03/07 05:16:54;;;;;;;6.35;3.00;;;;;;;-2.85;100.00;97278.25;4953768;28;20045;-72
2022/03/07 05:19:20;;;;;;;6.25;2.72;;;;;;;-2.84;100.00;97279.06;4969224;28;21054;-72
2022/03/07 05:21:45;;;;;;;5.22;3.08;;;;;;;-2.70;100.00;97285.63;4973199;28;20063;-72
2022/03/07 05:24:11;;;;;;;7.75;2.72;;;;;;;-2.73;100.00;97280.66;4939695;28;20086;-72
2022/03/07 05:26:37;;;;;;;5.68;2.65;;;;;;;-2.76;100.00;97280.97;4953902;28;20035;-73
2022/03/07 05:29:03;;;;;;;4.93;2.80;;;;;;;-2.80;100.00;97280.44;4939527;28;20507;-72
2022/03/07 05:31:29;;;;;;;7.45;3.70;;;;;;;-2.92;100.00;97274.56;4939445;28;20070;-72
2022/03/07 05:33:55;;;;;;;11.77;2.97;;;;;;;-2.78;100.00;97273.25;4938044;28;20039;-73
2022/03/07 05:36:21;;;;;;;5.53;2.95;;;;;;;-2.77;100.00;97276.69;4970183;28;20884;-73
2022/03/07 05:38:46;;;;;;;7.45;3.20;;;;;;;-2.82;100.00;97277.13;4939386;28;20170;-72
2022/03/07 05:41:12;;;;;;;5.22;3.28;;;;;;;-2.80;100.00;97285.69;4971192;28;20047;-73
2022/03/07 05:43:38;;;;;;;6.95;3.17;;;;;;;-2.87;100.00;97280.19;4954134;28;20110;-72
2022/03/07 05:46:03;;;;;;;3.85;1.88;;;;;;;-2.90;100.00;97267.38;4937493;28;20039;-72
2022/03/07 05:48:29;;;;;;;4.03;2.22;;;;;;;-2.89;100.00;97276.88;4970302;28;20039;-72
2022/03/07 05:50:54;;;;;;;6.25;3.40;;;;;;;-2.87;100.00;97276.75;4939744;28;20043;-73
2022/03/07 05:53:22;;;;;;;7.32;3.70;;;;;;;-2.86;100.00;97273.16;4938994;28;20038;-75
2022/03/07 05:55:51;;;;;;;10.10;3.67;;;;;;;-2.94;100.00;97276.50;4969857;28;20027;-73
2022/03/07 05:58:18;;;;;;;9.15;4.55;;;;;;;-2.87;100.00;97279.38;4937709;28;20118;-73
2022/03/07 06:00:43;;;;;;;7.03;3.47;;;;;;;-2.84;100.00;97269.41;4968549;28;20039;-74
2022/03/07 06:03:10;;;;;;;4.85;2.42;;;;;;;-2.77;100.00;97280.16;4969446;28;20806;-73
2022/03/07 06:05:36;;;;;;;4.18;2.35;;;;;;;-2.77;100.00;97284.56;4968286;28;20038;-74
2022/03/07 06:08:02;;;;;;;5.85;3.40;;;;;;;-2.82;100.00;97282.38;4936367;28;20038;-74
2022/03/07 06:10:28;;;;;;;9.48;4.05;;;;;;;-2.95;100.00;97292.38;4967176;28;20059;-73
2022/03/07 06:12:54;;;;;;;5.97;2.78;;;;;;;-2.80;100.00;97285.69;4968708;28;20971;-74
2022/03/07 06:15:19;;;;;;;5.82;3.42;;;;;;;-2.80;100.00;97288.31;4940691;28;20039;-73
2022/03/07 06:17:53;;;;;;;7.82;3.08;;;;;;;-2.85;100.00;97286.09;4934925;28;20047;-74
2022/03/07 06:20:20;;;;;;;5.03;2.40;;;;;;;-2.80;100.00;97290.94;4937919;28;20035;-73
2022/03/07 06:22:45;;;;;;;7.22;3.85;;;;;;;-2.63;100.00;97294.56;4937286;28;20055;-73
2022/03/07 06:25:11;;;;;;;5.00;3.15;;;;;;;-2.57;100.00;97283.47;4938620;28;20514;-76
2022/03/07 06:27:37;;;;;;;10.65;2.95;;;;;;;-2.62;100.00;97299.66;4949627;28;20564;-75
2022/03/07 06:30:03;;;;;;;10.18;2.78;;;;;;;-2.62;100.00;97293.59;4967304;28;20074;-76
2022/03/07 06:32:28;;;;;;;7.68;3.22;;;;;;;-2.63;100.00;97298.00;4936066;28;20114;-75
2022/03/07 06:34:54;;;;;;;4.75;2.92;;;;;;;-2.65;100.00;97299.94;4939306;28;20081;-77
2022/03/07 06:37:20;;;;;;;4.22;2.42;;;;;;;-2.56;100.00;97298.25;4972362;28;20887;-74
2022/03/07 06:39:45;;;;;;;4.93;2.70;;;;;;;-2.62;100.00;97296.22;4937870;28;20134;-76
2022/03/07 06:42:11;;;;;;;8.40;3.83;;;;;;;-2.61;100.00;97295.25;4972830;28;20158;-73
2022/03/07 06:44:40;;;;;;;6.50;3.80;;;;;;;-2.49;100.00;97303.72;4940714;28;20257;-77
2022/03/07 06:47:09;;;;;;;4.32;2.72;;;;;;;-2.47;100.00;97304.41;4956546;28;20054;-75
2022/03/07 06:49:35;;;;;;;5.57;2.85;;;;;;;-2.42;100.00;97297.75;4955232;28;20771;-76
2022/03/07 06:52:01;;;;;;;6.60;3.42;;;;;;;-2.30;100.00;97306.25;4954600;28;20118;-75
2022/03/07 06:54:27;;;;;;;6.30;3.20;;;;;;;-2.30;100.00;97301.81;4939869;28;20417;-75
2022/03/07 06:56:55;;;;;;;6.70;3.60;;;;;;;-2.23;100.00;97309.94;4987103;28;20040;-75
2022/03/07 06:59:20;;;;;;;8.23;3.92;;;;;;;-2.16;100.00;97307.53;4940404;28;20031;-75
2022/03/07 07:01:46;;;;;;;6.25;3.13;;;;;;;-2.09;100.00;97314.66;4932693;28;20802;-76
2022/03/07 07:04:11;;;;;;;9.05;3.17;;;;;;;-2.08;100.00;97307.63;4971499;28;20039;-75
2022/03/07 07:06:37;;;;;;;5.47;3.13;;;;;;;-2.20;100.00;97309.63;4991605;28;20098;-78
2022/03/07 07:09:03;;;;;;;4.30;2.25;;;;;;;-2.03;100.00;97314.03;4952400;28;20030;-78
2022/03/07 07:11:28;;;;;;;8.90;3.60;;;;;;;-2.01;100.00;97317.38;4959245;28;20074;-78
2022/03/07 07:13:54;;;;;;;10.68;3.13;;;;;;;-1.91;100.00;97308.59;4942609;28;20043;-78
2022/03/07 07:16:19;;;;;;;10.23;4.07;;;;;;;-1.80;100.00;97324.94;4959755;28;20042;-78
2022/03/07 07:18:45;;;;;;;5.78;3.03;;;;;;;-1.98;100.00;97319.69;4942923;28;20121;-78
2022/03/07 07:21:11;;;;;;;6.97;3.10;;;;;;;-1.88;100.00;97318.78;4959601;28;20200;-77
2022/03/07 07:23:37;;;;;;;5.47;3.22;;;;;;;-1.78;100.00;97323.00;4945551;28;20031;-78
2022/03/07 07:26:04;;;;;;;6.63;3.13;;;;;;;-1.74;100.00;97315.63;4940808;28;20102;-78
2022/03/07 07:28:29;;;;;;;4.80;2.78;;;;;;;-1.69;100.00;97323.91;4942393;28;20053;-78
2022/03/07 07:30:55;;;;;;;5.72;1.92;;;;;;;-1.66;100.00;97318.34;4973101;28;20043;-77
2022/03/07 07:33:20;;;;;;;5.22;3.13;;;;;;;-1.65;100.00;97325.22;4970545;28;20745;-78
2022/03/07 07:35:46;;;;;;;5.10;2.40;;;;;;;-1.55;100.00;97326.00;4942363;28;20038;-77
2022/03/07 07:38:11;;;;;;;5.75;3.58;;;;;;;-1.41;100.00;97330.66;4939056;28;20031;-77
2022/03/07 07:40:37;;;;;;;4.00;1.98;;;;;;;-1.57;99.94;97321.84;4942932;28;20031;-78
2022/03/07 07:43:03;;;;;;;3.00;1.90;;;;;;;-1.66;100.00;97330.63;4945091;28;20036;-77
2022/03/07 07:45:28;;;;;;;7.40;3.28;;;;;;;-1.67;100.00;97327.19;4956380;28;20171;-78
2022/03/07 07:47:54;;;;;;;5.88;3.30;;;;;;;-1.68;100.00;97330.78;4954157;28;20097;-78
2022/03/07 07:50:20;;;;;;;9.93;3.58;;;;;;;-1.68;100.00;97328.16;4956056;28;20027;-77
2022/03/07 07:52:46;;;;;;;6.88;3.25;;;;;;;-1.58;100.00;97342.03;4941450;28;20595;-77
2022/03/07 07:55:12;;;;;;;6.70;3.40;;;;;;;-1.64;100.00;97337.38;4940438;28;20046;-76
2022/03/07 07:57:39;;;;;;;7.07;2.65;;;;;;;-1.61;100.00;97339.72;4974128;28;20649;-75
2022/03/07 08:00:07;;;;;;;6.82;3.20;;;;;;;-1.48;100.00;97352.44;4956300;28;20039;-77
2022/03/07 08:02:37;;;;;;;6.63;3.13;;;;;;;-1.43;100.00;97343.13;4943942;28;20043;-77
2022/03/07 08:05:04;;;;;;;5.47;2.38;;;;;;;-1.54;99.19;97326.81;4977112;28;20721;-76
2022/03/07 08:07:30;;;;;;;5.28;2.67;;;;;;;-1.56;99.06;97341.88;4990899;28;20027;-76
2022/03/07 08:09:56;;;;;;;5.35;3.25;;;;;;;-1.58;100.00;97349.91;4955217;28;20019;-76
2022/03/07 08:12:21;;;;;;;5.00;3.72;;;;;;;-1.42;99.20;97357.91;4958368;28;20669;-76
2022/03/07 08:14:47;;;;;;;7.13;3.58;;;;;;;-1.45;99.94;97352.16;4973458;28;20121;-76
2022/03/07 08:17:12;;;;;;;8.75;3.70;;;;;;;-1.32;99.04;97349.13;4940415;28;20050;-77
2022/03/07 08:19:38;;;;;;;6.53;3.70;;;;;;;-1.51;99.76;97350.94;4943548;28;20039;-77
2022/03/07 08:22:04;;;;;;;6.68;2.80;;;;;;;-1.41;98.32;97338.56;4958370;28;20118;-76
2022/03/07 08:24:30;;;;;;;5.32;2.83;;;;;;;-1.42;99.11;97347.41;4933665;28;20670;-77
2022/03/07 08:26:55;;;;;;;4.43;2.63;;;;;;;-1.17;98.13;97360.72;4972289;28;20500;-76
2022/03/07 08:29:21;;;;;;;5.40;2.17;;;;;;;-1.15;97.26;97359.63;4943111;28;20043;-78
2022/03/07 08:31:46;;;;;;;3.45;2.13;;;;;;;-1.13;96.74;97346.31;4971933;28;20059;-78
2022/03/07 08:34:12;;;;;;;5.28;2.88;;;;;;;-1.20;97.32;97361.03;4972638;28;20480;-78
2022/03/07 08:36:38;;;;;;;6.10;2.80;;;;;;;-1.09;96.19;97354.69;4942691;28;20039;-78
2022/03/07 08:39:04;;;;;;;6.35;3.05;;;;;;;-1.13;97.80;97360.28;4971833;28;20047;-78
2022/03/07 08:41:29;;;;;;;3.17;2.15;;;;;;;-1.09;96.66;97352.91;4973628;28;20113;-78
2022/03/07 08:43:55;;;;;;;3.53;2.15;;;;;;;-1.09;97.59;97352.06;4974094;28;20069;-78
2022/03/07 08:46:22;;;;;;;7.50;2.17;;;;;;;-0.88;96.28;97361.25;4959637;28;20055;-78
2022/03/07 08:48:48;;;;;;;10.25;2.30;;;;;;;-0.82;97.35;97348.50;4940340;28;20099;-77
2022/03/07 08:51:13;;;;;;;5.75;2.65;;;;;;;-0.59;96.20;97358.31;4956084;28;20023;-77
2022/03/07 08:53:39;;;;;;;3.47;2.17;;;;;;;-0.41;95.58;97350.34;4941088;28;20027;-78
2022/03/07 08:56:04;;;;;;;4.20;2.60;;;;;;;-0.26;94.85;97357.63;4941631;28;20113;-78
2022/03/07 08:58:30;;;;;;;3.10;2.10;;;;;;;-0.35;93.47;97347.09;4950026;28;20034;-78
2022/03/07 09:00:55;;;;;;;6.47;2.47;;;;;;;-0.35;94.48;97349.72;4941580;28;20053;-78
2022/03/07 09:03:21;;;;;;;5.82;3.38;;;;;;;-0.25;95.18;97354.00;4944620;28;20083;-78
2022/03/07 09:05:46;;;;;;;3.15;1.90;;;;;;;-0.16;93.45;97347.78;4940821;28;20097;-78
2022/03/07 09:08:12;;;;;;;9.13;3.05;;;;;;;0.04;93.24;97351.81;4940047;28;20110;-78
2022/03/07 09:10:37;;;;;;;2.88;1.60;;;;;;;-0.31;92.04;97358.94;4943747;28;20043;-78
2022/03/07 09:13:03;;;;;;;8.70;2.35;;;;;;;-0.37;94.57;97356.13;4971689;28;20055;-78
2022/03/07 09:15:28;;;;;;;3.83;2.08;;;;;;;-0.40;94.11;97349.34;4988103;28;20061;-78
2022/03/07 09:17:54;;;;;;;5.85;2.15;;;;;;;-0.10;92.88;97355.88;4954169;28;20039;-78
2022/03/07 09:20:20;;;;;;;7.22;3.10;;;;;;;0.07;93.53;97345.41;4956406;28;20027;-78
2022/03/07 09:22:46;;;;;;;5.35;2.90;;;;;;;0.21;92.92;97357.94;4955681;28;20721;-78
2022/03/07 09:25:12;;;;;;;8.05;2.50;;;;;;;0.45;92.15;97343.97;4939295;28;20027;-78
2022/03/07 09:27:38;;;;;;;3.38;1.98;;;;;;;0.28;89.90;97345.78;4955262;28;20046;-78
2022/03/07 09:30:06;;;;;;;4.72;2.67;;;;;;;0.40;90.50;97339.22;4938392;28;20038;-79
2022/03/07 09:32:32;;;;;;;4.32;2.17;;;;;;;0.41;89.34;97342.69;4938622;28;20138;-77
2022/03/07 09:34:57;;;;;;;3.60;2.00;;;;;;;0.33;87.70;97354.03;4945907;28;20557;-78
2022/03/07 09:37:23;;;;;;;7.50;2.45;;;;;;;-0.02;89.82;97347.19;4940115;28;20027;-78
2022/03/07 09:39:50;;;;;;;5.18;2.95;;;;;;;0.05;91.39;97348.19;4972188;28;20570;-84
2022/03/07 09:42:15;;;;;;;5.82;3.40;;;;;;;0.36;90.62;97350.22;4989462;28;20027;-77
2022/03/07 09:44:41;;;;;;;6.22;2.95;;;;;;;0.50;89.72;97358.31;4970205;28;20545;-78
2022/03/07 09:47:10;;;;;;;5.00;3.03;;;;;;;0.72;89.05;97356.84;4955010;28;20558;-82
2022/03/07 09:49:35;;;;;;;6.38;3.38;;;;;;;1.10;89.33;97351.88;4972409;28;20054;-78
2022/03/07 09:52:01;;;;;;;5.38;2.75;;;;;;;1.35;85.13;97350.84;4936793;28;20043;-78
2022/03/07 09:54:27;;;;;;;4.55;2.40;;;;;;;1.39;82.62;97353.94;4971193;28;20035;-78
2022/03/07 09:56:55;;;;;;;4.32;2.38;;;;;;;1.13;84.41;97348.09;4985736;28;20031;-77
2022/03/07 09:59:22;;;;;;;6.82;3.08;;;;;;;0.82;85.71;97346.13;4968875;28;20111;-77
2022/03/07 10:02:05;;;;;;;5.00;2.70;;;;;;;1.28;82.93;97352.50;4931964;28;20031;-77
2022/03/07 10:04:32;;;;;;;4.95;2.05;;;;;;;1.32;82.67;97356.47;4968869;28;20024;-76
2022/03/07 10:07:01;;;;;;;4.78;2.90;;;;;;;1.50;83.78;97358.88;4970238;28;20189;-77
2022/03/07 10:09:27;;;;;;;5.10;2.53;;;;;;;1.81;79.05;97339.63;4950886;28;20081;-76
2022/03/07 10:11:55;;;;;;;5.38;3.08;;;;;;;1.87;78.10;97354.78;4969654;28;20707;-77
2022/03/07 10:14:44;;;;;;;5.90;2.60;;;;;;;2.41;75.28;97329.22;4950722;28;20109;-76
2022/03/07 10:17:22;;;;;;;3.50;1.83;;;;;;;2.89;71.79;97335.13;4937014;28;20046;-76
2022/03/07 10:19:48;;;;;;;4.20;2.38;;;;;;;3.41;65.70;97341.38;4940685;28;20222;-77
2022/03/07 10:22:19;;;;;;;5.38;2.53;;;;;;;4.43;58.53;97335.13;4953322;28;20121;-76
2022/03/07 10:24:45;;;;;;;5.30;3.25;;;;;;;6.26;49.35;97334.16;4939005;28;20045;-77
2022/03/07 10:27:23;;;;;;;5.88;3.50;;;;;;;7.15;45.76;97349.81;4969478;28;20187;-77
2022/03/07 10:29:48;;;;;;;7.70;3.45;;;;;;;8.15;41.65;97345.13;4970162;28;20111;-77
2022/03/07 10:32:18;;;;;;;4.47;2.75;;;;;;;8.48;39.67;97337.84;4938140;28;20038;-77
2022/03/07 10:34:44;;;;;;;5.88;3.47;;;;;;;8.67;37.97;97337.94;4939385;28;20058;-77
2022/03/07 10:37:09;;;;;;;3.38;1.90;;;;;;;8.54;36.97;97344.16;4968620;28;20031;-77
2022/03/07 10:39:35;;;;;;;14.52;3.30;;;;;;;8.65;36.73;97341.63;4953747;28;20035;-77
2022/03/07 10:42:01;;;;;;;5.40;2.50;;;;;;;9.08;35.34;97338.25;4969788;28;20043;-78
2022/03/07 10:44:29;;;;;;;4.57;1.85;;;;;;;11.23;33.02;97337.16;4968169;28;20035;-77
2022/03/07 10:47:29;;;;;;;5.20;3.05;;;;;;;13.23;29.09;97336.47;4984048;28;20094;-78
2022/03/07 10:49:58;;;;;;;4.70;2.15;;;;;;;10.46;32.18;97332.50;4928012;28;20074;-78
2022/03/07 10:52:25;;;;;;;4.88;3.70;;;;;;;12.60;30.95;97325.88;4937914;28;20035;-77
2022/03/07 10:54:51;;;;;;;4.70;2.80;;;;;;;13.25;29.18;97336.22;4937776;28;20038;-77
2022/03/07 10:57:20;;;;;;;5.80;3.20;;;;;;;14.19;28.16;97328.97;4953140;28;20550;-77
2022/03/07 10:59:45;;;;;;;6.38;3.08;;;;;;;14.64;26.58;97341.38;4984208;28;20823;-77
2022/03/07 11:02:16;;;;;;;7.30;3.17;;;;;;;13.87;27.77;97331.50;4939096;28;20039;-77
2022/03/07 11:04:48;;;;;;;3.33;2.17;;;;;;;12.44;28.75;97333.66;4971585;28;20046;-77
2022/03/07 11:07:14;;;;;;;10.40;3.55;;;;;;;14.03;28.17;97326.34;4938385;28;20046;-77
2022/03/07 11:09:40;;;;;;;7.05;3.30;;;;;;;14.99;26.91;97324.75;4970090;28;20035;-77
2022/03/07 11:12:11;;;;;;;5.10;2.65;;;;;;;15.75;24.68;97318.34;4951874;28;20484;-78
2022/03/07 11:14:39;;;;;;;6.27;3.33;;;;;;;16.67;24.81;97314.16;4939785;28;20847;-78
2022/03/07 11:17:11;;;;;;;7.63;3.53;;;;;;;17.75;23.36;97307.78;4937446;28;20756;-77
2022/03/07 11:19:37;;;;;;;4.43;2.88;;;;;;;18.51;24.47;97299.38;4938352;28;20035;-78
2022/03/07 11:22:04;;;;;;;4.07;2.95;;;;;;;18.11;23.85;97286.81;4956800;28;20061;-77
2022/03/07 11:24:35;;;;;;;7.13;2.65;;;;;;;18.76;22.11;97295.75;4941644;28;20206;-77
2022/03/07 11:27:01;;;;;;;;;;;;;;;17.41;22.28;97289.38;4956428;28;20046;-78